createdAt,value
2023-05-06T00:00:56.125Z,249.76
2023-05-06T00:01:56.201Z,249.34
2023-05-06T00:02:56.308Z,249.95
2023-05-06T00:03:56.472Z,249.20
2023-05-06T00:04:56.522Z,250.00
2023-05-06T00:05:56.461Z,249.68
2023-05-06T00:06:56.535Z,249.45
2023-05-06T00:07:56.675Z,247.50
2023-05-06T00:08:56.685Z,246.99
2023-05-06T00:09:56.746Z,245.48
2023-05-06T00:10:56.749Z,245.27
2023-05-06T00:11:56.780Z,244.31
2023-05-06T00:13:02.243Z,244.62
2023-05-06T00:13:56.893Z,245.56
2023-05-06T00:14:56.954Z,245.79
2023-05-06T00:15:57.064Z,246.35
2023-05-06T00:16:57.115Z,246.41
2023-05-06T00:17:57.235Z,246.63
2023-05-06T00:18:57.248Z,246.62
2023-05-06T00:19:57.280Z,247.79
2023-05-06T00:20:57.309Z,247.52
2023-05-06T00:21:57.349Z,248.59
2023-05-06T00:22:57.383Z,248.49
2023-05-06T00:23:57.452Z,249.55
2023-05-06T00:24:57.488Z,249.51
2023-05-06T00:25:57.579Z,249.81
2023-05-06T00:26:57.591Z,249.84
2023-05-06T00:27:57.619Z,249.86
2023-05-06T00:28:57.629Z,249.79
2023-05-06T00:29:57.640Z,250.06
2023-05-06T00:30:57.674Z,250.34
2023-05-06T00:31:57.696Z,249.94
2023-05-06T00:32:57.699Z,249.94
2023-05-06T00:33:57.695Z,249.60
2023-05-06T00:34:57.696Z,248.80
2023-05-06T00:35:57.742Z,248.90
2023-05-06T00:36:57.715Z,249.65
2023-05-06T00:37:57.764Z,250.00
2023-05-06T00:38:57.750Z,249.98
2023-05-06T00:39:57.817Z,249.64
2023-05-06T00:40:58.461Z,249.39
2023-05-06T00:41:57.889Z,249.28
2023-05-06T00:42:58.011Z,248.06
2023-05-06T00:43:57.996Z,248.38
2023-05-06T00:44:58.118Z,249.54
2023-05-06T00:45:58.155Z,249.36
2023-05-06T00:46:58.191Z,249.44
2023-05-06T00:47:58.339Z,248.41
2023-05-06T00:48:58.346Z,248.86
2023-05-06T00:49:58.409Z,249.53
2023-05-06T00:50:58.413Z,248.76
2023-05-06T00:51:58.419Z,248.80
2023-05-06T00:52:58.467Z,248.87
2023-05-06T00:53:58.451Z,249.03
2023-05-06T00:54:58.465Z,249.24
2023-05-06T00:55:58.505Z,250.73
2023-05-06T00:56:58.495Z,248.52
2023-05-06T00:57:58.503Z,249.29
2023-05-06T00:58:58.496Z,248.16
2023-05-06T00:59:58.499Z,248.31
2023-05-06T01:00:58.534Z,248.12
2023-05-06T01:01:58.545Z,248.55
2023-05-06T01:02:58.805Z,247.62
2023-05-06T01:03:58.796Z,247.47
2023-05-06T01:04:58.643Z,247.38
2023-05-06T01:05:58.547Z,247.09
2023-05-06T01:06:58.557Z,247.70
2023-05-06T01:07:58.574Z,246.72
2023-05-06T01:08:58.573Z,247.51
2023-05-06T01:09:58.614Z,246.93
2023-05-06T01:10:58.633Z,246.52
2023-05-06T01:11:58.677Z,247.06
2023-05-06T01:13:00.301Z,246.85
2023-05-06T01:13:58.753Z,246.56
2023-05-06T01:14:58.866Z,245.82
2023-05-06T01:15:58.855Z,246.09
2023-05-06T01:16:58.989Z,245.26
2023-05-06T01:17:59.007Z,245.03
2023-05-06T01:18:58.937Z,245.61
2023-05-06T01:19:58.987Z,245.60
2023-05-06T01:20:59.023Z,245.83
2023-05-06T01:21:59.018Z,246.47
2023-05-06T01:22:59.028Z,247.47
2023-05-06T01:23:59.064Z,247.16
2023-05-06T01:24:59.076Z,247.66
2023-05-06T01:25:59.101Z,247.90
2023-05-06T01:26:59.138Z,247.38
2023-05-06T01:27:59.146Z,247.98
2023-05-06T01:28:59.169Z,246.99
2023-05-06T01:29:59.191Z,246.83
2023-05-06T01:30:59.216Z,246.07
2023-05-06T01:31:59.247Z,245.78
2023-05-06T01:32:59.307Z,246.02
2023-05-06T01:33:59.255Z,245.90
2023-05-06T01:34:59.283Z,246.31
2023-05-06T01:35:59.242Z,246.56
2023-05-06T01:36:59.253Z,246.82
2023-05-06T01:37:59.290Z,246.47
2023-05-06T01:38:59.297Z,247.24
2023-05-06T01:39:59.330Z,246.98
2023-05-06T01:40:59.321Z,246.12
2023-05-06T01:41:59.350Z,246.91
2023-05-06T01:42:59.362Z,245.16
2023-05-06T01:43:59.414Z,244.50
2023-05-06T01:44:59.375Z,244.62
2023-05-06T01:45:59.398Z,245.31
2023-05-06T01:46:59.432Z,245.58
2023-05-06T01:47:59.526Z,246.12
2023-05-06T01:48:59.477Z,245.24
2023-05-06T01:49:59.546Z,245.13
2023-05-06T01:50:59.580Z,246.07
2023-05-06T01:51:59.579Z,246.08
2023-05-06T01:52:59.588Z,246.16
2023-05-06T01:53:59.615Z,246.21
2023-05-06T01:54:59.624Z,245.75
2023-05-06T01:55:59.626Z,245.50
2023-05-06T01:56:59.671Z,244.53
2023-05-06T01:57:59.713Z,244.11
2023-05-06T01:59:00.082Z,241.90
2023-05-06T01:59:59.691Z,241.79
2023-05-06T02:00:59.696Z,241.70
2023-05-06T02:01:59.911Z,242.37
2023-05-06T02:02:59.838Z,241.63
2023-05-06T02:03:59.897Z,242.54
2023-05-06T02:04:59.814Z,241.56
2023-05-06T02:05:59.771Z,242.57
2023-05-06T02:06:59.785Z,244.54
2023-05-06T02:07:59.895Z,245.27
2023-05-06T02:08:59.796Z,243.92
2023-05-06T02:09:59.828Z,244.57
2023-05-06T02:10:59.822Z,244.00
2023-05-06T02:11:59.831Z,244.78
2023-05-06T02:12:59.985Z,245.13
2023-05-06T02:13:59.853Z,243.52
2023-05-06T02:14:59.862Z,243.59
2023-05-06T02:15:59.984Z,243.81
2023-05-06T02:16:59.895Z,244.32
2023-05-06T02:18:00.063Z,245.48
2023-05-06T02:18:59.924Z,245.88
2023-05-06T02:19:59.970Z,246.48
2023-05-06T02:21:00.006Z,246.27
2023-05-06T02:21:59.951Z,244.89
2023-05-06T02:22:59.985Z,245.91
2023-05-06T02:23:59.982Z,247.45
2023-05-06T02:25:00.005Z,243.20
2023-05-06T02:26:00.021Z,241.81
2023-05-06T02:27:00.017Z,240.20
2023-05-06T02:28:00.064Z,239.64
2023-05-06T02:29:00.053Z,240.09
2023-05-06T02:30:00.090Z,239.71
2023-05-06T02:31:00.136Z,239.18
2023-05-06T02:32:00.162Z,239.16
2023-05-06T02:33:00.239Z,238.85
2023-05-06T02:34:00.338Z,236.34
2023-05-06T02:35:00.206Z,235.21
2023-05-06T02:36:00.200Z,233.56
2023-05-06T02:37:00.288Z,232.03
2023-05-06T02:38:00.200Z,232.21
2023-05-06T02:39:00.235Z,231.78
2023-05-06T02:40:00.282Z,232.80
2023-05-06T02:41:00.259Z,230.67
2023-05-06T02:42:00.284Z,229.65
2023-05-06T02:43:00.374Z,227.53
2023-05-06T02:44:00.297Z,225.77
2023-05-06T02:45:00.321Z,223.45
2023-05-06T02:46:00.380Z,221.08
2023-05-06T02:47:00.338Z,219.31
2023-05-06T02:48:00.404Z,217.83
2023-05-06T02:49:00.393Z,217.38
2023-05-06T02:50:00.433Z,215.94
2023-05-06T02:51:00.459Z,214.28
2023-05-06T02:52:00.466Z,213.75
2023-05-06T02:53:00.547Z,213.33
2023-05-06T02:54:00.555Z,214.02
2023-05-06T02:55:00.527Z,213.48
2023-05-06T02:56:00.527Z,214.50
2023-05-06T02:57:00.596Z,214.03
2023-05-06T02:58:00.596Z,214.79
2023-05-06T02:59:00.671Z,215.53
2023-05-06T03:00:00.667Z,216.39
2023-05-06T03:01:00.712Z,217.47
2023-05-06T03:02:00.702Z,218.22
2023-05-06T03:03:00.770Z,218.58
2023-05-06T03:04:00.726Z,219.68
2023-05-06T03:05:00.771Z,219.88
2023-05-06T03:06:00.740Z,220.53
2023-05-06T03:07:00.773Z,220.26
2023-05-06T03:08:00.784Z,220.98
2023-05-06T03:09:00.928Z,220.77
2023-05-06T03:10:00.818Z,218.81
2023-05-06T03:11:00.861Z,215.66
2023-05-06T03:12:00.854Z,212.50
2023-05-06T03:13:00.931Z,213.45
2023-05-06T03:14:00.918Z,213.59
2023-05-06T03:15:00.967Z,212.79
2023-05-06T03:16:00.996Z,214.07
2023-05-06T03:17:01.111Z,215.14
2023-05-06T03:18:01.099Z,215.16
2023-05-06T03:19:01.104Z,215.20
2023-05-06T03:20:01.112Z,215.56
2023-05-06T03:21:01.297Z,216.08
2023-05-06T03:22:01.147Z,217.58
2023-05-06T03:23:01.190Z,218.11
2023-05-06T03:24:01.203Z,218.63
2023-05-06T03:25:01.219Z,218.46
2023-05-06T03:26:01.264Z,219.91
2023-05-06T03:27:01.287Z,218.58
2023-05-06T03:28:01.378Z,217.56
2023-05-06T03:29:01.367Z,215.03
2023-05-06T03:30:01.370Z,213.80
2023-05-06T03:31:01.402Z,213.83
2023-05-06T03:32:01.494Z,213.16
2023-05-06T03:33:01.568Z,211.88
2023-05-06T03:34:01.473Z,211.59
2023-05-06T03:35:01.533Z,211.77
2023-05-06T03:36:01.508Z,210.50
2023-05-06T03:37:01.558Z,211.30
2023-05-06T03:38:01.570Z,210.30
2023-05-06T03:39:01.589Z,209.91
2023-05-06T03:40:01.610Z,209.72
2023-05-06T03:41:01.688Z,210.38
2023-05-06T03:42:01.648Z,210.20
2023-05-06T03:43:01.725Z,209.89
2023-05-06T03:44:01.857Z,209.84
2023-05-06T03:45:01.731Z,210.12
2023-05-06T03:46:01.801Z,208.88
2023-05-06T03:47:01.877Z,208.97
2023-05-06T03:48:01.855Z,207.48
2023-05-06T03:49:01.840Z,207.49
2023-05-06T03:50:02.549Z,207.50
2023-05-06T03:51:01.911Z,205.54
2023-05-06T03:52:01.944Z,205.13
2023-05-06T03:53:01.986Z,206.20
2023-05-06T03:54:01.987Z,205.65
2023-05-06T03:55:02.005Z,204.82
2023-05-06T03:56:02.015Z,205.60
2023-05-06T03:57:02.166Z,204.24
2023-05-06T03:58:02.099Z,205.55
2023-05-06T03:59:02.092Z,207.49
2023-05-06T04:00:02.160Z,206.99
2023-05-06T04:01:02.150Z,207.44
2023-05-06T04:02:02.165Z,208.81
2023-05-06T04:03:02.302Z,209.06
2023-05-06T04:04:02.310Z,209.16
2023-05-06T04:05:02.253Z,209.63
2023-05-06T04:06:02.332Z,210.06
2023-05-06T04:07:02.397Z,210.15
2023-05-06T04:08:02.501Z,209.57
2023-05-06T04:09:02.578Z,209.36
2023-05-06T04:10:02.651Z,209.62
2023-05-06T04:11:02.726Z,208.84
2023-05-06T04:12:02.848Z,208.62
2023-05-06T04:13:02.956Z,208.66
2023-05-06T04:14:02.993Z,208.70
2023-05-06T04:15:03.087Z,209.34
2023-05-06T04:16:03.142Z,210.03
2023-05-06T04:17:03.200Z,210.51
2023-05-06T04:18:03.340Z,210.00
2023-05-06T04:19:05.083Z,209.13
2023-05-06T04:20:03.400Z,208.52
2023-05-06T04:21:03.466Z,208.05
2023-05-06T04:22:03.459Z,207.72
2023-05-06T04:23:03.488Z,207.17
2023-05-06T04:24:03.524Z,208.32
2023-05-06T04:25:03.584Z,207.53
2023-05-06T04:26:03.555Z,207.32
2023-05-06T04:27:03.605Z,207.68
2023-05-06T04:28:04.090Z,207.70
2023-05-06T04:29:03.837Z,207.69
2023-05-06T04:30:03.673Z,208.20
2023-05-06T04:31:03.698Z,208.93
2023-05-06T04:32:03.783Z,208.41
2023-05-06T04:33:03.826Z,208.85
2023-05-06T04:34:03.814Z,208.63
2023-05-06T04:35:03.878Z,210.28
2023-05-06T04:36:03.879Z,210.23
2023-05-06T04:37:03.912Z,208.97
2023-05-06T04:38:03.925Z,210.03
2023-05-06T04:39:03.954Z,210.45
2023-05-06T04:40:03.985Z,208.90
2023-05-06T04:41:04.004Z,209.61
2023-05-06T04:42:04.029Z,207.58
2023-05-06T04:43:04.093Z,208.74
2023-05-06T04:44:04.105Z,207.40
2023-05-06T04:45:04.213Z,207.65
2023-05-06T04:46:04.196Z,207.58
2023-05-06T04:47:04.246Z,208.45
2023-05-06T04:48:04.272Z,208.76
2023-05-06T04:49:04.268Z,210.07
2023-05-06T04:50:04.281Z,208.76
2023-05-06T04:51:04.401Z,209.76
2023-05-06T04:52:04.346Z,210.13
2023-05-06T04:53:04.419Z,209.54
2023-05-06T04:54:04.413Z,209.54
2023-05-06T04:55:04.416Z,209.01
2023-05-06T04:56:04.458Z,209.12
2023-05-06T04:57:04.495Z,209.10
2023-05-06T04:58:04.527Z,208.39
2023-05-06T04:59:04.568Z,209.35
2023-05-06T05:00:04.677Z,209.06
2023-05-06T05:01:04.880Z,208.49
2023-05-06T05:02:04.911Z,210.76
2023-05-06T05:03:05.262Z,211.55
2023-05-06T05:04:05.147Z,211.83
2023-05-06T05:05:05.196Z,212.65
2023-05-06T05:06:05.261Z,213.46
2023-05-06T05:07:05.358Z,214.36
2023-05-06T05:08:05.461Z,214.39
2023-05-06T05:09:05.581Z,214.81
2023-05-06T05:10:05.666Z,216.10
2023-05-06T05:11:05.781Z,217.03
2023-05-06T05:12:05.901Z,216.99
2023-05-06T05:13:06.026Z,217.08
2023-05-06T05:14:06.115Z,215.75
2023-05-06T05:15:06.205Z,216.60
2023-05-06T05:16:06.292Z,216.52
2023-05-06T05:17:06.743Z,217.50
2023-05-06T05:18:06.546Z,217.50
2023-05-06T05:19:08.954Z,218.95
2023-05-06T05:20:06.652Z,219.57
2023-05-06T05:21:06.681Z,220.13
2023-05-06T05:22:06.711Z,220.09
2023-05-06T05:23:06.861Z,220.81
2023-05-06T05:24:06.784Z,220.49
2023-05-06T05:25:07.904Z,220.48
2023-05-06T05:26:06.929Z,221.28
2023-05-06T05:27:06.871Z,222.69
2023-05-06T05:28:06.938Z,222.04
2023-05-06T05:29:06.972Z,224.36
2023-05-06T05:30:07.019Z,226.16
2023-05-06T05:31:09.672Z,227.03
2023-05-06T05:32:07.107Z,227.09
2023-05-06T05:33:07.260Z,227.15
2023-05-06T05:34:07.106Z,227.66
2023-05-06T05:35:07.272Z,227.87
2023-05-06T05:36:07.186Z,229.48
2023-05-06T05:37:07.274Z,229.78
2023-05-06T05:38:07.258Z,229.89
2023-05-06T05:39:07.265Z,229.75
2023-05-06T05:40:07.361Z,230.20
2023-05-06T05:41:07.320Z,230.81
2023-05-06T05:42:07.389Z,231.67
2023-05-06T05:43:07.550Z,233.95
2023-05-06T05:44:07.576Z,234.00
2023-05-06T05:45:07.749Z,233.98
2023-05-06T05:46:07.655Z,234.31
2023-05-06T05:47:07.613Z,234.32
2023-05-06T05:48:07.686Z,234.00
2023-05-06T05:49:07.657Z,234.11
2023-05-06T05:50:07.707Z,232.39
2023-05-06T05:51:07.715Z,230.97
2023-05-06T05:52:07.740Z,230.94
2023-05-06T05:53:07.772Z,230.11
2023-05-06T05:54:07.800Z,230.55
2023-05-06T05:55:08.147Z,231.72
2023-05-06T05:56:07.944Z,231.43
2023-05-06T05:57:08.050Z,230.45
2023-05-06T05:58:08.101Z,230.19
2023-05-06T05:59:08.173Z,231.26
2023-05-06T06:00:08.254Z,231.33
2023-05-06T06:01:08.355Z,231.15
2023-05-06T06:02:08.570Z,230.09
2023-05-06T06:03:08.632Z,229.32
2023-05-06T06:04:08.666Z,226.87
2023-05-06T06:05:09.056Z,225.34
2023-05-06T06:06:08.761Z,224.42
2023-05-06T06:07:08.807Z,224.43
2023-05-06T06:08:08.839Z,223.49
2023-05-06T06:09:08.863Z,222.73
2023-05-06T06:10:08.885Z,221.30
2023-05-06T06:11:08.904Z,220.06
2023-05-06T06:12:08.942Z,219.88
2023-05-06T06:13:09.005Z,217.76
2023-05-06T06:14:09.056Z,218.01
2023-05-06T06:15:09.201Z,216.65
2023-05-06T06:16:09.091Z,215.08
2023-05-06T06:17:09.191Z,214.25
2023-05-06T06:18:09.242Z,213.05
2023-05-06T06:19:09.319Z,211.78
2023-05-06T06:20:09.439Z,210.97
2023-05-06T06:21:09.553Z,210.59
2023-05-06T06:22:09.613Z,209.71
2023-05-06T06:23:09.715Z,210.23
2023-05-06T06:24:09.792Z,209.25
2023-05-06T06:25:10.114Z,209.30
2023-05-06T06:26:12.119Z,210.24
2023-05-06T06:27:10.094Z,208.65
2023-05-06T06:28:10.201Z,208.67
2023-05-06T06:29:10.274Z,207.53
2023-05-06T06:30:10.383Z,206.73
2023-05-06T06:31:10.514Z,204.14
2023-05-06T06:32:10.620Z,202.23
2023-05-06T06:33:10.651Z,200.59
2023-05-06T06:34:10.772Z,199.99
2023-05-06T06:35:10.990Z,200.05
2023-05-06T06:36:10.935Z,201.11
2023-05-06T06:37:11.097Z,199.91
2023-05-06T06:38:11.113Z,200.70
2023-05-06T06:39:11.185Z,201.35
2023-05-06T06:40:11.295Z,201.73
2023-05-06T06:41:11.344Z,201.15
2023-05-06T06:42:11.477Z,201.72
2023-05-06T06:43:11.552Z,201.55
2023-05-06T06:44:11.637Z,201.60
2023-05-06T06:45:11.948Z,201.64
2023-05-06T06:46:11.755Z,200.99
2023-05-06T06:47:11.722Z,201.61
2023-05-06T06:48:11.860Z,200.32
2023-05-06T06:49:11.807Z,200.32
2023-05-06T06:50:11.806Z,198.86
2023-05-06T06:51:11.844Z,198.22
2023-05-06T06:52:11.907Z,195.42
2023-05-06T06:53:11.980Z,194.76
2023-05-06T06:54:11.942Z,191.66
2023-05-06T06:55:12.302Z,190.47
2023-05-06T06:56:12.026Z,186.92
2023-05-06T06:57:12.086Z,185.01
2023-05-06T06:58:12.080Z,182.80
2023-05-06T06:59:12.127Z,183.77
2023-05-06T07:00:12.135Z,183.32
2023-05-06T07:01:12.221Z,182.71
2023-05-06T07:02:12.201Z,183.48
2023-05-06T07:03:12.310Z,187.15
2023-05-06T07:04:12.437Z,189.41
2023-05-06T07:05:12.768Z,190.42
2023-05-06T07:06:12.642Z,192.34
2023-05-06T07:07:12.683Z,191.87
2023-05-06T07:08:12.789Z,190.92
2023-05-06T07:09:12.864Z,191.73
2023-05-06T07:10:12.960Z,190.91
2023-05-06T07:11:13.068Z,191.95
2023-05-06T07:12:13.141Z,192.93
2023-05-06T07:13:13.256Z,194.25
2023-05-06T07:14:13.355Z,193.61
2023-05-06T07:15:13.634Z,193.59
2023-05-06T07:16:13.534Z,196.25
2023-05-06T07:17:13.682Z,197.37
2023-05-06T07:18:14.204Z,202.41
2023-05-06T07:19:13.968Z,205.96
2023-05-06T07:20:13.911Z,208.22
2023-05-06T07:21:14.107Z,210.51
2023-05-06T07:22:14.105Z,213.22
2023-05-06T07:23:14.209Z,218.26
2023-05-06T07:24:14.369Z,221.23
2023-05-06T07:25:14.446Z,224.94
2023-05-06T07:26:14.493Z,228.49
2023-05-06T07:27:14.568Z,230.77
2023-05-06T07:28:14.693Z,234.41
2023-05-06T07:29:14.765Z,236.53
2023-05-06T07:30:14.876Z,236.06
2023-05-06T07:31:15.027Z,238.91
2023-05-06T07:32:15.056Z,239.82
2023-05-06T07:33:15.160Z,241.12
2023-05-06T07:34:15.269Z,243.68
2023-05-06T07:35:15.264Z,246.15
2023-05-06T07:36:15.345Z,248.62
2023-05-06T07:37:15.520Z,249.57
2023-05-06T07:38:15.535Z,249.03
2023-05-06T07:39:15.643Z,250.04
2023-05-06T07:40:15.673Z,249.91
2023-05-06T07:41:15.810Z,249.79
2023-05-06T07:42:23.698Z,250.00
2023-05-06T07:43:15.813Z,250.09
2023-05-06T07:44:15.813Z,250.16
2023-05-06T07:45:15.851Z,250.17
2023-05-06T07:46:15.934Z,250.49
2023-05-06T07:47:15.914Z,251.46
2023-05-06T07:48:17.999Z,249.67
2023-05-06T07:49:15.945Z,249.71
2023-05-06T07:50:15.998Z,249.76
2023-05-06T07:51:15.996Z,249.47
2023-05-06T07:52:16.051Z,249.36
2023-05-06T07:53:16.101Z,248.60
2023-05-06T07:54:16.081Z,248.84
2023-05-06T07:55:16.109Z,248.92
2023-05-06T07:56:16.654Z,248.88
2023-05-06T07:57:16.339Z,250.00
2023-05-06T07:58:16.656Z,249.43
2023-05-06T07:59:16.216Z,249.11
2023-05-06T08:00:16.258Z,248.99
2023-05-06T08:01:16.262Z,248.86
2023-05-06T08:02:16.316Z,247.33
2023-05-06T08:03:16.343Z,243.27
2023-05-06T08:04:16.345Z,241.70
2023-05-06T08:05:16.351Z,238.59
2023-05-06T08:06:16.374Z,237.31
2023-05-06T08:07:16.394Z,235.13
2023-05-06T08:08:16.435Z,232.04
2023-05-06T08:09:22.761Z,228.13
2023-05-06T08:10:17.458Z,227.67
2023-05-06T08:11:19.166Z,223.85
2023-05-06T08:12:16.547Z,220.69
2023-05-06T08:13:16.653Z,214.86
2023-05-06T08:14:16.564Z,212.02
2023-05-06T08:15:16.550Z,210.64
2023-05-06T08:16:16.658Z,203.58
2023-05-06T08:17:16.596Z,200.41
2023-05-06T08:18:22.169Z,197.31
2023-05-06T08:19:17.639Z,197.33
2023-05-06T08:20:16.684Z,194.68
2023-05-06T08:21:16.648Z,191.01
2023-05-06T08:22:16.676Z,187.35
2023-05-06T08:23:16.722Z,182.38
2023-05-06T08:24:16.705Z,177.37
2023-05-06T08:25:16.725Z,176.93
2023-05-06T08:26:16.769Z,175.86
2023-05-06T08:27:16.766Z,171.42
2023-05-06T08:28:16.880Z,169.82
2023-05-06T08:29:16.853Z,165.09
2023-05-06T08:30:16.838Z,161.11
2023-05-06T08:31:16.922Z,161.13
2023-05-06T08:32:16.844Z,158.17
2023-05-06T08:33:16.887Z,155.09
2023-05-06T08:34:16.922Z,151.83
2023-05-06T08:35:16.960Z,146.08
2023-05-06T08:36:16.994Z,146.33
2023-05-06T08:37:17.061Z,137.88
2023-05-06T08:38:17.099Z,139.88
2023-05-06T08:39:17.133Z,136.32
2023-05-06T08:40:17.165Z,136.74
2023-05-06T08:41:17.329Z,145.17
2023-05-06T08:42:17.254Z,150.01
2023-05-06T08:43:17.285Z,149.71
2023-05-06T08:44:17.375Z,146.82
2023-05-06T08:45:17.398Z,146.29
2023-05-06T08:46:17.515Z,145.97
2023-05-06T08:47:17.544Z,147.97
2023-05-06T08:48:17.661Z,150.94
2023-05-06T08:49:17.700Z,151.92
2023-05-06T08:50:17.798Z,153.54
2023-05-06T08:51:17.885Z,154.58
2023-05-06T08:52:17.933Z,155.66
2023-05-06T08:53:18.003Z,157.51
2023-05-06T08:54:18.068Z,159.06
2023-05-06T08:55:18.122Z,160.71
2023-05-06T08:56:18.191Z,161.52
2023-05-06T08:57:18.251Z,163.99
2023-05-06T08:58:18.317Z,164.60
2023-05-06T08:59:18.387Z,166.24
2023-05-06T09:00:18.453Z,168.23
2023-05-06T09:01:18.597Z,169.94
2023-05-06T09:02:18.553Z,171.00
2023-05-06T09:03:18.923Z,173.39
2023-05-06T09:04:18.618Z,174.35
2023-05-06T09:05:18.706Z,176.59
2023-05-06T09:06:18.715Z,178.59
2023-05-06T09:07:18.774Z,179.17
2023-05-06T09:08:18.809Z,181.01
2023-05-06T09:09:18.912Z,181.73
2023-05-06T09:10:19.122Z,183.76
2023-05-06T09:11:18.960Z,184.45
2023-05-06T09:12:18.964Z,186.85
2023-05-06T09:13:19.081Z,188.43
2023-05-06T09:14:19.071Z,189.81
2023-05-06T09:15:19.099Z,191.25
2023-05-06T09:16:19.137Z,191.34
2023-05-06T09:17:19.130Z,191.92
2023-05-06T09:18:19.140Z,193.17
2023-05-06T09:19:19.116Z,195.22
2023-05-06T09:20:19.138Z,198.94
2023-05-06T09:21:19.155Z,199.80
2023-05-06T09:22:19.129Z,201.92
2023-05-06T09:23:19.165Z,202.97
2023-05-06T09:24:19.161Z,203.62
2023-05-06T09:25:19.123Z,206.69
2023-05-06T09:26:19.144Z,207.59
2023-05-06T09:27:19.129Z,208.68
2023-05-06T09:28:19.237Z,209.31
2023-05-06T09:29:19.139Z,210.28
2023-05-06T09:30:19.188Z,211.47
2023-05-06T09:31:19.199Z,212.47
2023-05-06T09:32:19.181Z,213.93
2023-05-06T09:33:19.237Z,215.02
2023-05-06T09:34:19.274Z,216.16
2023-05-06T09:35:19.302Z,216.31
2023-05-06T09:36:19.347Z,217.94
2023-05-06T09:37:19.340Z,218.01
2023-05-06T09:38:19.387Z,218.23
2023-05-06T09:39:19.351Z,218.08
2023-05-06T09:40:19.397Z,218.68
2023-05-06T09:41:19.377Z,219.85
2023-05-06T09:42:19.359Z,221.02
2023-05-06T09:43:19.398Z,223.87
2023-05-06T09:44:19.381Z,218.21
2023-05-06T09:45:19.357Z,219.28
2023-05-06T09:46:19.404Z,220.85
2023-05-06T09:47:19.343Z,224.24
2023-05-06T09:48:19.370Z,227.74
2023-05-06T09:49:19.515Z,228.92
2023-05-06T09:50:19.374Z,229.62
2023-05-06T09:51:19.370Z,230.33
2023-05-06T09:52:19.368Z,230.73
2023-05-06T09:53:19.399Z,231.67
2023-05-06T09:54:19.379Z,232.54
2023-05-06T09:55:19.388Z,233.11
2023-05-06T09:56:19.410Z,233.45
2023-05-06T09:57:19.426Z,234.52
2023-05-06T09:58:19.414Z,234.91
2023-05-06T09:59:19.404Z,235.32
2023-05-06T10:00:19.461Z,235.77
2023-05-06T10:01:32.577Z,236.28
2023-05-06T10:02:20.624Z,236.36
2023-05-06T10:03:19.644Z,236.57
2023-05-06T10:04:19.640Z,237.09
2023-05-06T10:05:19.620Z,237.58
2023-05-06T10:06:19.542Z,238.83
2023-05-06T10:07:19.537Z,238.99
2023-05-06T10:08:19.552Z,239.86
2023-05-06T10:09:19.535Z,239.68
2023-05-06T10:10:19.616Z,241.02
2023-05-06T10:11:19.539Z,241.72
2023-05-06T10:12:19.557Z,240.62
2023-05-06T10:13:19.715Z,241.72
2023-05-06T10:14:19.597Z,242.06
2023-05-06T10:15:19.556Z,243.48
2023-05-06T10:16:19.606Z,243.31
2023-05-06T10:17:19.581Z,243.82
2023-05-06T10:18:19.607Z,243.89
2023-05-06T10:19:19.734Z,243.76
2023-05-06T10:20:19.654Z,244.58
2023-05-06T10:21:19.845Z,244.58
2023-05-06T10:22:19.731Z,245.18
2023-05-06T10:23:19.738Z,245.31
2023-05-06T10:24:19.778Z,246.16
2023-05-06T10:25:19.805Z,246.43
2023-05-06T10:26:19.838Z,246.37
2023-05-06T10:27:19.889Z,246.82
2023-05-06T10:28:29.868Z,246.79
2023-05-06T10:29:21.733Z,246.86
2023-05-06T10:30:19.920Z,247.13
2023-05-06T10:31:20.011Z,247.47
2023-05-06T10:32:19.982Z,248.07
2023-05-06T10:33:19.947Z,248.95
2023-05-06T10:34:19.972Z,248.96
2023-05-06T10:35:19.980Z,249.03
2023-05-06T10:36:19.972Z,249.01
2023-05-06T10:37:20.108Z,248.92
2023-05-06T10:38:19.974Z,249.37
2023-05-06T10:39:19.999Z,249.88
2023-05-06T10:40:20.027Z,248.98
2023-05-06T10:41:19.989Z,249.59
2023-05-06T10:42:20.001Z,250.00
2023-05-06T10:43:20.015Z,249.95
2023-05-06T10:44:20.221Z,248.45
2023-05-06T10:45:20.019Z,248.83
2023-05-06T10:46:20.026Z,248.75
2023-05-06T10:47:20.035Z,249.70
2023-05-06T10:48:20.013Z,249.22
2023-05-06T10:49:20.037Z,250.00
2023-05-06T10:50:20.035Z,249.56
2023-05-06T10:51:20.020Z,249.70
2023-05-06T10:52:20.060Z,248.92
2023-05-06T10:53:20.217Z,249.07
2023-05-06T10:54:20.002Z,249.59
2023-05-06T10:55:19.997Z,249.44
2023-05-06T10:56:20.008Z,249.94
2023-05-06T10:57:19.987Z,248.55
2023-05-06T10:58:20.008Z,249.57
2023-05-06T10:59:20.005Z,249.15
2023-05-06T11:00:19.999Z,249.12
2023-05-06T11:01:20.029Z,248.85
2023-05-06T11:02:20.265Z,249.74
2023-05-06T11:03:20.092Z,249.37
2023-05-06T11:04:20.031Z,249.43
2023-05-06T11:05:19.982Z,249.52
2023-05-06T11:06:19.988Z,249.80
2023-05-06T11:07:19.992Z,250.14
2023-05-06T11:08:20.030Z,250.32
2023-05-06T11:09:20.068Z,249.47
2023-05-06T11:10:20.009Z,249.68
2023-05-06T11:11:19.994Z,250.26
2023-05-06T11:12:19.992Z,250.34
2023-05-06T11:13:20.039Z,249.48
2023-05-06T11:14:20.017Z,249.78
2023-05-06T11:15:20.112Z,249.98
2023-05-06T11:16:20.004Z,250.17
2023-05-06T11:17:20.087Z,250.88
2023-05-06T11:18:19.983Z,249.09
2023-05-06T11:19:20.017Z,249.52
2023-05-06T11:20:19.983Z,249.96
2023-05-06T11:21:19.993Z,249.48
2023-05-06T11:22:19.980Z,249.64
2023-05-06T11:23:20.003Z,249.45
2023-05-06T11:24:19.987Z,249.40
2023-05-06T11:25:20.066Z,248.94
2023-05-06T11:26:19.997Z,248.94
2023-05-06T11:27:19.992Z,248.57
2023-05-06T11:28:19.992Z,248.64
2023-05-06T11:29:20.016Z,248.68
2023-05-06T11:30:19.997Z,248.95
2023-05-06T11:31:20.031Z,248.95
2023-05-06T11:32:19.998Z,249.14
2023-05-06T11:33:20.010Z,248.67
2023-05-06T11:34:20.078Z,248.88
2023-05-06T11:35:20.007Z,249.11
2023-05-06T11:36:20.035Z,249.52
2023-05-06T11:37:20.000Z,249.33
2023-05-06T11:38:20.006Z,249.92
2023-05-06T11:39:20.048Z,249.09
2023-05-06T11:40:20.009Z,249.54
2023-05-06T11:41:20.086Z,249.41
2023-05-06T11:42:20.010Z,249.30
2023-05-06T11:43:20.190Z,249.43
2023-05-06T11:44:20.023Z,249.47
2023-05-06T11:45:20.005Z,248.83
2023-05-06T11:46:20.065Z,248.82
2023-05-06T11:47:20.012Z,248.91
2023-05-06T11:48:20.011Z,248.93
2023-05-06T11:49:20.029Z,248.80
2023-05-06T11:50:20.002Z,249.47
2023-05-06T11:51:20.000Z,249.06
2023-05-06T11:52:19.992Z,248.46
2023-05-06T11:53:20.027Z,249.33
2023-05-06T11:54:20.019Z,248.89
2023-05-06T11:55:20.043Z,249.21
2023-05-06T11:56:20.164Z,249.12
2023-05-06T11:57:20.175Z,248.77
2023-05-06T11:58:20.133Z,249.18
2023-05-06T11:59:20.161Z,248.67
2023-05-06T12:00:20.151Z,249.06
2023-05-06T12:01:20.197Z,248.13
2023-05-06T12:02:20.254Z,248.98
2023-05-06T12:03:20.394Z,248.99
2023-05-06T12:04:20.284Z,249.32
2023-05-06T12:05:20.275Z,249.24
2023-05-06T12:06:20.723Z,248.86
2023-05-06T12:07:20.313Z,249.16
2023-05-06T12:08:27.573Z,249.01
2023-05-06T12:09:21.761Z,249.07
2023-05-06T12:10:20.333Z,249.13
2023-05-06T12:11:20.343Z,249.21
2023-05-06T12:12:20.356Z,249.33
2023-05-06T12:13:20.369Z,249.79
2023-05-06T12:14:20.330Z,249.38
2023-05-06T12:15:20.339Z,249.03
2023-05-06T12:16:20.354Z,248.78
2023-05-06T12:17:20.342Z,249.05
2023-05-06T12:18:20.367Z,248.75
2023-05-06T12:19:20.349Z,248.93
2023-05-06T12:20:20.349Z,249.21
2023-05-06T12:21:20.347Z,249.09
2023-05-06T12:22:20.376Z,248.37
2023-05-06T12:23:20.342Z,249.37
2023-05-06T12:24:20.395Z,249.28
2023-05-06T12:25:20.342Z,249.74
2023-05-06T12:26:20.346Z,249.19
2023-05-06T12:27:20.348Z,248.76
2023-05-06T12:28:20.362Z,249.09
2023-05-06T12:29:20.455Z,248.85